createdAt,value
2023-02-11T00:00:50.609Z,-9.97
2023-02-11T00:03:26.046Z,-9.95
2023-02-11T00:05:53.632Z,-9.95
2023-02-11T00:08:21.177Z,-10.00
2023-02-11T00:10:49.070Z,-10.05
2023-02-11T00:13:16.763Z,-9.96
2023-02-11T00:15:44.385Z,-9.91
2023-02-11T00:18:11.906Z,-9.85
2023-02-11T00:20:39.436Z,-9.83
2023-02-11T00:23:07.047Z,-9.79
2023-02-11T00:25:34.716Z,-9.79
2023-02-11T00:28:02.229Z,-9.80
2023-02-11T00:30:30.208Z,-9.80
2023-02-11T00:32:57.764Z,-9.83
2023-02-11T00:35:25.246Z,-9.84
2023-02-11T00:37:52.935Z,-9.80
2023-02-11T00:40:20.564Z,-9.71
2023-02-11T00:42:48.071Z,-9.69
2023-02-11T00:45:15.614Z,-9.81
2023-02-11T00:47:43.389Z,-9.89
2023-02-11T00:50:10.896Z,-9.92
2023-02-11T00:52:38.529Z,-10.05
2023-02-11T00:55:06.089Z,-10.12
2023-02-11T00:57:33.697Z,-10.15
2023-02-11T01:00:01.181Z,-10.23
2023-02-11T01:02:28.966Z,-10.22
2023-02-11T01:04:56.512Z,-10.23
2023-02-11T01:07:24.044Z,-10.32
2023-02-11T01:09:51.916Z,-10.51
2023-02-11T01:12:19.442Z,-10.61
2023-02-11T01:14:46.940Z,-10.63
2023-02-11T01:17:14.769Z,-10.57
2023-02-11T01:19:42.241Z,-10.62
2023-02-11T01:22:09.712Z,-10.84
2023-02-11T01:24:37.398Z,-11.01
2023-02-11T01:27:04.871Z,-10.94
2023-02-11T01:29:32.415Z,-10.88
2023-02-11T01:32:00.294Z,-10.92
2023-02-11T01:34:27.929Z,-10.90
2023-02-11T01:36:58.157Z,-10.95
2023-02-11T01:39:25.962Z,-10.99
2023-02-11T01:41:53.549Z,-10.95
2023-02-11T01:44:21.062Z,-10.90
2023-02-11T01:46:48.632Z,-10.82
2023-02-11T01:49:16.253Z,-10.84
2023-02-11T01:51:43.846Z,-10.88
2023-02-11T01:54:30.309Z,-10.98
2023-02-11T01:57:16.575Z,-11.14
2023-02-11T01:59:44.247Z,-11.26
2023-02-11T02:02:11.789Z,-11.32
2023-02-11T02:04:39.265Z,-11.34
2023-02-11T02:07:07.125Z,-11.38
2023-02-11T02:09:34.705Z,-11.44
2023-02-11T02:12:02.209Z,-11.39
2023-02-11T02:14:29.758Z,-11.40
2023-02-11T02:16:57.274Z,-11.44
2023-02-11T02:19:24.750Z,-11.38
2023-02-11T02:21:52.234Z,-11.31
2023-02-11T02:24:19.851Z,-11.16
2023-02-11T02:26:47.692Z,-11.10
2023-02-11T02:29:15.312Z,-11.00
2023-02-11T02:31:42.993Z,-10.90
2023-02-11T02:34:10.805Z,-10.87
2023-02-11T02:36:38.376Z,-10.95
2023-02-11T02:39:05.870Z,-10.96
2023-02-11T02:41:33.729Z,-11.10
2023-02-11T02:44:01.333Z,-11.42
2023-02-11T02:46:28.949Z,-11.58
2023-02-11T02:48:56.769Z,-11.53
2023-02-11T02:51:24.365Z,-11.55
2023-02-11T02:53:51.869Z,-11.72
2023-02-11T02:56:19.394Z,-11.78
2023-02-11T02:58:47.403Z,-11.86
2023-02-11T03:01:15.172Z,-12.10
2023-02-11T03:03:43.342Z,-12.30
2023-02-11T03:06:11.057Z,-12.38
2023-02-11T03:08:38.544Z,-12.33
2023-02-11T03:11:06.061Z,-12.26
2023-02-11T03:13:34.056Z,-12.13
2023-02-11T03:16:01.649Z,-12.14
2023-02-11T03:18:29.350Z,-12.14
2023-02-11T03:20:57.478Z,-12.04
2023-02-11T03:23:25.026Z,-11.95
2023-02-11T03:25:52.676Z,-11.89
2023-02-11T03:28:20.301Z,-11.87
2023-02-11T03:30:48.051Z,-11.82
2023-02-11T03:33:15.660Z,-11.88
2023-02-11T03:35:43.326Z,-11.91
2023-02-11T03:38:10.900Z,-11.99
2023-02-11T03:40:38.353Z,-12.11
2023-02-11T03:43:06.096Z,-12.27
2023-02-11T03:45:33.685Z,-12.29
2023-02-11T03:48:01.305Z,-12.26
2023-02-11T03:50:28.874Z,-12.18
2023-02-11T03:52:56.868Z,-12.28
2023-02-11T03:55:25.954Z,-12.49
2023-02-11T03:57:53.484Z,-12.54
2023-02-11T04:00:20.975Z,-12.44
2023-02-11T04:02:48.656Z,-12.38
2023-02-11T04:05:16.288Z,-12.29
2023-02-11T04:07:43.798Z,-12.27
2023-02-11T04:10:11.265Z,-12.21
2023-02-11T04:12:38.876Z,-12.02
2023-02-11T04:15:06.348Z,-11.82
2023-02-11T04:17:33.989Z,-11.67
2023-02-11T04:20:01.677Z,-11.55
2023-02-11T04:22:29.176Z,-11.52
2023-02-11T04:24:56.686Z,-11.49
2023-02-11T04:27:24.326Z,-11.37
2023-02-11T04:29:51.854Z,-11.26
2023-02-11T04:32:19.416Z,-11.16
2023-02-11T04:34:47.609Z,-11.07
2023-02-11T04:37:15.079Z,-11.06
2023-02-11T04:39:42.579Z,-11.02
2023-02-11T04:42:10.123Z,-10.87
2023-02-11T04:44:37.725Z,-10.70
2023-02-11T04:47:05.374Z,-10.53
2023-02-11T04:49:32.882Z,-10.43
2023-02-11T04:52:00.416Z,-10.32
2023-02-11T04:54:27.884Z,-10.20
2023-02-11T04:56:55.640Z,-10.10
2023-02-11T04:59:23.198Z,-10.00
2023-02-11T05:01:50.729Z,-9.91
2023-02-11T05:04:18.341Z,-9.82
2023-02-11T05:06:46.050Z,-9.73
2023-02-11T05:09:13.582Z,-9.64
2023-02-11T05:11:41.088Z,-9.62
2023-02-11T05:14:08.579Z,-9.61
2023-02-11T05:16:36.129Z,-9.62
2023-02-11T05:19:03.814Z,-9.73
2023-02-11T05:21:31.300Z,-9.81
2023-02-11T05:23:58.877Z,-9.77
2023-02-11T05:26:26.821Z,-9.85
2023-02-11T05:28:54.441Z,-9.86
2023-02-11T05:31:22.178Z,-10.05
2023-02-11T05:33:49.762Z,-10.30
2023-02-11T05:36:17.305Z,-10.38
2023-02-11T05:38:44.850Z,-10.37
2023-02-11T05:41:12.616Z,-10.32
2023-02-11T05:43:40.220Z,-10.27
2023-02-11T05:46:08.037Z,-10.23
2023-02-11T05:48:35.664Z,-10.29
2023-02-11T05:51:03.134Z,-10.33
2023-02-11T05:53:30.776Z,-10.36
2023-02-11T05:55:58.377Z,-10.33
2023-02-11T05:58:25.871Z,-10.28
2023-02-11T06:00:56.148Z,-10.27
2023-02-11T06:03:23.754Z,-10.21
2023-02-11T06:05:51.553Z,-10.13
2023-02-11T06:08:19.245Z,-10.17
2023-02-11T06:10:46.778Z,-10.22
2023-02-11T06:13:14.348Z,-10.21
2023-02-11T06:15:41.996Z,-10.14
2023-02-11T06:18:09.942Z,-10.07
2023-02-11T06:20:40.778Z,-10.04
2023-02-11T06:23:08.525Z,-9.99
2023-02-11T06:25:36.043Z,-9.91
2023-02-11T06:28:04.000Z,-9.88
2023-02-11T06:30:31.570Z,-9.87
2023-02-11T06:32:59.098Z,-9.79
2023-02-11T06:35:26.778Z,-9.71
2023-02-11T06:37:54.671Z,-9.64
2023-02-11T06:40:22.412Z,-9.57
2023-02-11T06:42:49.950Z,-9.51
2023-02-11T06:45:17.596Z,-9.44
2023-02-11T06:47:45.653Z,-9.37
2023-02-11T06:50:13.233Z,-8.77
2023-02-11T06:52:40.794Z,-8.08
2023-02-11T06:55:08.429Z,-7.36
2023-02-11T06:57:35.924Z,-7.11
2023-02-11T07:00:05.353Z,-7.49
2023-02-11T07:02:33.372Z,-7.85
2023-02-11T07:05:01.191Z,-8.07
2023-02-11T07:07:28.680Z,-8.11
2023-02-11T07:09:56.341Z,-8.17
2023-02-11T07:12:23.877Z,-8.11
2023-02-11T07:14:51.396Z,-8.02
2023-02-11T07:17:18.926Z,-7.86
2023-02-11T07:19:46.465Z,-7.68
2023-02-11T07:22:13.947Z,-7.46
2023-02-11T07:24:41.446Z,-7.27
2023-02-11T07:27:09.045Z,-7.13
2023-02-11T07:29:36.590Z,-7.05
2023-02-11T07:32:04.424Z,-6.98
2023-02-11T07:34:32.198Z,-6.83
2023-02-11T07:36:59.751Z,-6.66
2023-02-11T07:39:27.593Z,-6.54
2023-02-11T07:41:55.278Z,-6.43
2023-02-11T07:44:22.753Z,-6.34
2023-02-11T07:46:50.465Z,-6.22
2023-02-11T07:49:18.308Z,-6.09
2023-02-11T07:51:47.184Z,-5.98
2023-02-11T07:54:14.757Z,-5.91
2023-02-11T07:56:42.284Z,-5.84
2023-02-11T07:59:09.821Z,-5.74
2023-02-11T08:01:37.329Z,-5.65
2023-02-11T08:04:04.992Z,-5.57
2023-02-11T08:06:32.714Z,-5.54
2023-02-11T08:09:00.211Z,-5.49
2023-02-11T08:11:27.699Z,-5.40
2023-02-11T08:13:55.226Z,-5.27
2023-02-11T08:16:22.941Z,-5.09
2023-02-11T08:18:50.507Z,-4.91
2023-02-11T08:21:18.002Z,-4.77
2023-02-11T08:23:45.518Z,-4.67
2023-02-11T08:26:13.275Z,-4.55
2023-02-11T08:28:40.800Z,-4.30
2023-02-11T08:31:08.465Z,-4.08
2023-02-11T08:33:36.157Z,-3.89
2023-02-11T08:36:03.800Z,-3.71
2023-02-11T08:38:31.408Z,-3.55
2023-02-11T08:40:58.865Z,-3.42
2023-02-11T08:43:26.402Z,-3.35
2023-02-11T08:45:54.271Z,-3.31
2023-02-11T08:48:21.860Z,-3.22
2023-02-11T08:50:49.537Z,-3.14
2023-02-11T08:53:17.072Z,-3.10
2023-02-11T08:55:44.550Z,-3.03
2023-02-11T08:58:12.005Z,-2.92
2023-02-11T09:00:39.502Z,-2.77
2023-02-11T09:03:06.955Z,-2.57
2023-02-11T09:05:34.449Z,-2.33
2023-02-11T09:08:01.942Z,-2.15
2023-02-11T09:10:29.390Z,-2.02
2023-02-11T09:12:56.858Z,-1.92
2023-02-11T09:15:24.523Z,-1.79
2023-02-11T09:17:51.985Z,-1.65
2023-02-11T09:20:19.500Z,-1.61
2023-02-11T09:22:47.094Z,-1.52
2023-02-11T09:25:14.570Z,-1.41
2023-02-11T09:27:42.048Z,-1.27
2023-02-11T09:30:09.632Z,-1.13
2023-02-11T09:32:37.159Z,-1.00
2023-02-11T09:35:04.650Z,-0.82
2023-02-11T09:37:32.206Z,-0.66
2023-02-11T09:39:59.664Z,-0.50
2023-02-11T09:42:27.236Z,-0.40
2023-02-11T09:44:54.851Z,-0.35
2023-02-11T09:47:22.369Z,-0.29
2023-02-11T09:49:49.934Z,-0.26
2023-02-11T09:52:17.866Z,-0.23
2023-02-11T09:54:45.369Z,-0.16
2023-02-11T09:57:27.725Z,-0.11
2023-02-11T09:59:56.101Z,-0.06
2023-02-11T10:02:23.614Z,-0.01
2023-02-11T10:04:51.367Z,0.02
2023-02-11T10:07:18.888Z,0.04
2023-02-11T10:09:46.364Z,0.09
2023-02-11T10:12:13.840Z,0.10
2023-02-11T10:14:41.492Z,0.15
2023-02-11T10:17:09.077Z,0.19
2023-02-11T10:19:36.665Z,0.20
2023-02-11T10:22:04.179Z,0.28
2023-02-11T10:24:31.646Z,0.35
2023-02-11T10:26:59.216Z,0.41
2023-02-11T10:29:26.940Z,0.51
2023-02-11T10:31:56.568Z,0.57
2023-02-11T10:34:25.950Z,0.60
2023-02-11T10:36:53.641Z,0.62
2023-02-11T10:39:21.257Z,0.66
2023-02-11T10:41:48.707Z,0.73
2023-02-11T10:44:16.329Z,0.78
2023-02-11T10:46:43.926Z,0.83
2023-02-11T10:49:11.680Z,0.82
2023-02-11T10:51:39.258Z,0.81
2023-02-11T10:54:08.292Z,0.78
2023-02-11T10:56:35.764Z,0.73
2023-02-11T10:59:03.555Z,0.76
2023-02-11T11:01:31.049Z,0.79
2023-02-11T11:04:00.043Z,0.84
2023-02-11T11:06:27.693Z,0.85
2023-02-11T11:08:55.320Z,0.87
2023-02-11T11:11:22.892Z,0.88
2023-02-11T11:13:50.444Z,0.91
2023-02-11T11:16:18.247Z,0.96
2023-02-11T11:18:45.815Z,1.03
2023-02-11T11:21:13.438Z,1.08
2023-02-11T11:23:41.037Z,1.12
2023-02-11T11:26:08.561Z,1.19
2023-02-11T11:28:38.837Z,1.23
2023-02-11T11:31:06.665Z,1.26
2023-02-11T11:33:34.390Z,1.28
2023-02-11T11:36:02.089Z,1.28
2023-02-11T11:38:29.560Z,1.27
2023-02-11T11:40:57.037Z,1.25
2023-02-11T11:43:24.703Z,1.24
2023-02-11T11:45:52.193Z,1.26
2023-02-11T11:48:19.947Z,1.25
2023-02-11T11:50:47.642Z,1.26
2023-02-11T11:53:15.444Z,1.29
2023-02-11T11:55:43.231Z,1.34
2023-02-11T11:58:10.887Z,1.39
2023-02-11T12:00:38.374Z,1.45
2023-02-11T12:03:06.042Z,1.51
2023-02-11T12:05:33.696Z,1.60
2023-02-11T12:08:02.043Z,1.68
2023-02-11T12:10:29.515Z,1.75
2023-02-11T12:12:57.105Z,1.79
2023-02-11T12:15:24.791Z,1.83
2023-02-11T12:17:52.396Z,1.87
2023-02-11T12:20:19.931Z,1.88
2023-02-11T12:22:47.456Z,1.92
2023-02-11T12:25:15.016Z,1.93
2023-02-11T12:27:42.627Z,1.97
2023-02-11T12:30:10.166Z,2.00
2023-02-11T12:32:37.752Z,2.05
2023-02-11T12:35:05.341Z,2.06
2023-02-11T12:37:32.857Z,2.08
2023-02-11T12:40:00.328Z,2.12
2023-02-11T12:42:46.636Z,2.18
2023-02-11T12:45:14.591Z,2.24
2023-02-11T12:47:42.375Z,2.26
2023-02-11T12:50:10.016Z,2.27
2023-02-11T12:52:37.536Z,2.23
2023-02-11T12:55:06.035Z,2.24
2023-02-11T12:57:33.884Z,2.24
2023-02-11T13:00:01.363Z,2.26
2023-02-11T13:02:29.175Z,2.27
2023-02-11T13:04:57.017Z,2.26
2023-02-11T13:07:24.577Z,2.22
2023-02-11T13:09:52.031Z,2.19
2023-02-11T13:12:38.518Z,2.16
2023-02-11T13:15:06.240Z,2.19
2023-02-11T13:17:34.351Z,2.19
2023-02-11T13:20:01.923Z,2.16
2023-02-11T13:22:29.450Z,2.13
2023-02-11T13:24:57.026Z,2.12
2023-02-11T13:27:24.639Z,2.16
2023-02-11T13:29:52.104Z,2.19
2023-02-11T13:32:19.695Z,2.22
2023-02-11T13:34:47.450Z,2.20
2023-02-11T13:37:15.218Z,2.17
2023-02-11T13:39:42.980Z,2.13
2023-02-11T13:42:10.721Z,2.13
2023-02-11T13:44:38.508Z,2.13
2023-02-11T13:47:06.382Z,2.12
2023-02-11T13:49:34.165Z,2.08
2023-02-11T13:52:01.939Z,2.06
2023-02-11T13:54:29.493Z,2.06
2023-02-11T13:56:57.045Z,2.08
2023-02-11T13:59:27.707Z,2.09
2023-02-11T14:02:14.401Z,2.08
2023-02-11T14:05:00.728Z,2.05
2023-02-11T14:07:47.200Z,2.03
2023-02-11T14:10:14.648Z,2.01
2023-02-11T14:12:42.522Z,2.01
2023-02-11T14:15:10.320Z,1.99
2023-02-11T14:17:38.103Z,1.98
2023-02-11T14:20:05.788Z,1.97
2023-02-11T14:22:33.449Z,1.94
2023-02-11T14:25:01.274Z,1.92
2023-02-11T14:27:28.837Z,1.89
2023-02-11T14:29:56.470Z,1.90
2023-02-11T14:32:24.408Z,1.92
2023-02-11T14:34:52.101Z,1.93
2023-02-11T14:37:19.606Z,1.93
2023-02-11T14:39:47.152Z,1.93
2023-02-11T14:42:14.644Z,1.94
2023-02-11T14:44:42.136Z,1.93
2023-02-11T14:47:09.795Z,1.95
2023-02-11T14:49:37.320Z,1.94
2023-02-11T14:52:04.977Z,1.91
2023-02-11T14:54:32.604Z,1.86
2023-02-11T14:57:00.081Z,1.79
2023-02-11T14:59:27.760Z,1.71
2023-02-11T15:01:55.995Z,1.62
2023-02-11T15:04:23.722Z,1.55
2023-02-11T15:06:51.479Z,1.50
2023-02-11T15:09:19.000Z,1.45
2023-02-11T15:11:46.731Z,1.43
2023-02-11T15:14:14.243Z,1.42
2023-02-11T15:16:41.737Z,1.42
2023-02-11T15:19:09.258Z,1.45
2023-02-11T15:21:37.123Z,1.45
2023-02-11T15:24:06.260Z,1.44
2023-02-11T15:26:34.116Z,1.43
2023-02-11T15:29:02.026Z,1.42
2023-02-11T15:31:32.514Z,1.41
2023-02-11T15:34:02.446Z,1.37
2023-02-11T15:36:33.083Z,1.32
2023-02-11T15:39:00.572Z,1.25
2023-02-11T15:41:28.478Z,1.19
2023-02-11T15:43:56.268Z,1.16
2023-02-11T15:46:24.110Z,1.13
2023-02-11T15:48:51.809Z,1.12
2023-02-11T15:51:20.990Z,1.11
2023-02-11T15:53:48.479Z,1.11
2023-02-11T15:56:16.064Z,1.10
2023-02-11T15:58:43.633Z,1.10
2023-02-11T16:01:11.213Z,1.11
2023-02-11T16:03:38.960Z,1.12
2023-02-11T16:06:06.599Z,1.14
2023-02-11T16:08:35.445Z,1.14
2023-02-11T16:11:03.518Z,1.14
2023-02-11T16:13:33.794Z,1.12
2023-02-11T16:16:02.645Z,1.12
2023-02-11T16:18:37.673Z,1.11
2023-02-11T16:21:06.337Z,1.11
2023-02-11T16:23:33.862Z,1.12
2023-02-11T16:26:01.748Z,1.13
2023-02-11T16:28:29.795Z,1.12
2023-02-11T16:30:59.312Z,1.09
2023-02-11T16:33:29.050Z,1.06
2023-02-11T16:35:58.018Z,1.05
2023-02-11T16:38:25.784Z,1.01
2023-02-11T16:40:53.843Z,0.98
2023-02-11T16:43:21.597Z,0.94
2023-02-11T16:45:49.590Z,0.91
2023-02-11T16:48:18.364Z,0.90
2023-02-11T16:50:46.685Z,0.89
2023-02-11T16:53:14.905Z,0.87
2023-02-11T16:55:42.681Z,0.86
2023-02-11T16:58:10.260Z,0.84
2023-02-11T17:00:37.892Z,0.82
2023-02-11T17:03:05.683Z,0.78
2023-02-11T17:05:45.760Z,0.75
2023-02-11T17:08:20.920Z,0.73
2023-02-11T17:10:48.841Z,0.70
2023-02-11T17:13:16.686Z,0.71
2023-02-11T17:15:44.445Z,0.71
2023-02-11T17:18:11.960Z,0.66
2023-02-11T17:20:39.666Z,0.64
2023-02-11T17:23:07.409Z,0.62
2023-02-11T17:25:37.442Z,0.60
2023-02-11T17:28:05.189Z,0.60
2023-02-11T17:30:33.120Z,0.61
2023-02-11T17:33:00.872Z,0.60
2023-02-11T17:35:28.468Z,0.59
2023-02-11T17:37:56.470Z,0.58
2023-02-11T17:40:24.395Z,0.56
2023-02-11T17:42:51.904Z,0.56
2023-02-11T17:45:22.183Z,0.58
2023-02-11T17:47:50.025Z,0.58
2023-02-11T17:50:17.567Z,0.58
2023-02-11T17:52:45.525Z,0.59
2023-02-11T17:55:13.417Z,0.58
2023-02-11T17:57:41.314Z,0.56
2023-02-11T18:00:09.206Z,0.56
2023-02-11T18:02:36.993Z,0.55
2023-02-11T18:05:05.536Z,0.54
2023-02-11T18:07:33.375Z,0.56
2023-02-11T18:10:01.093Z,0.57
2023-02-11T18:12:28.700Z,0.57
2023-02-11T18:14:58.172Z,0.57
2023-02-11T18:17:25.836Z,0.55
2023-02-11T18:19:53.347Z,0.55
2023-02-11T18:22:21.059Z,0.54
2023-02-11T18:24:48.714Z,0.55
2023-02-11T18:27:16.358Z,0.54
2023-02-11T18:29:44.462Z,0.52
2023-02-11T18:32:12.234Z,0.51
2023-02-11T18:34:39.787Z,0.50
2023-02-11T18:37:07.444Z,0.51
2023-02-11T18:39:34.922Z,0.50
2023-02-11T18:42:02.617Z,0.48
2023-02-11T18:44:30.431Z,0.46
2023-02-11T18:46:57.975Z,0.43
2023-02-11T18:49:25.682Z,0.41
2023-02-11T18:51:53.230Z,0.41
2023-02-11T18:54:23.746Z,0.41
2023-02-11T18:56:51.314Z,0.43
2023-02-11T18:59:19.102Z,0.44
2023-02-11T19:01:47.158Z,0.48
2023-02-11T19:04:20.104Z,0.52
2023-02-11T19:06:47.955Z,0.52
2023-02-11T19:09:15.836Z,0.53
2023-02-11T19:11:54.597Z,0.53
2023-02-11T19:14:22.474Z,0.52
2023-02-11T19:16:51.452Z,0.50
2023-02-11T19:19:19.526Z,0.49
2023-02-11T19:21:47.804Z,0.47
2023-02-11T19:24:24.409Z,0.48
2023-02-11T19:26:52.282Z,0.50
2023-02-11T19:29:20.036Z,0.52
2023-02-11T19:31:48.121Z,0.54
2023-02-11T19:34:16.812Z,0.56
2023-02-11T19:36:44.527Z,0.56
2023-02-11T19:39:12.507Z,0.57
2023-02-11T19:41:39.965Z,0.55
2023-02-11T19:44:08.024Z,0.54
2023-02-11T19:46:36.067Z,0.53
2023-02-11T19:49:03.651Z,0.53
2023-02-11T19:51:32.755Z,0.54
2023-02-11T19:54:00.470Z,0.57
2023-02-11T19:56:31.305Z,0.59
2023-02-11T19:58:58.882Z,0.59
2023-02-11T20:01:26.490Z,0.58
2023-02-11T20:03:54.355Z,0.56
2023-02-11T20:06:23.605Z,0.53
2023-02-11T20:08:51.452Z,0.51
2023-02-11T20:11:19.631Z,0.49
2023-02-11T20:13:47.204Z,0.45
2023-02-11T20:16:16.990Z,0.44
2023-02-11T20:18:44.595Z,0.40
2023-02-11T20:21:12.165Z,0.39
2023-02-11T20:23:40.717Z,0.37
2023-02-11T20:26:08.240Z,0.36
2023-02-11T20:28:36.140Z,0.35
2023-02-11T20:31:03.942Z,0.34
2023-02-11T20:33:31.915Z,0.34
2023-02-11T20:35:59.757Z,0.35
2023-02-11T20:38:27.340Z,0.38
2023-02-11T20:40:55.128Z,0.40
2023-02-11T20:43:22.968Z,0.43
2023-02-11T20:45:50.814Z,0.47
2023-02-11T20:48:18.653Z,0.50
2023-02-11T20:50:48.320Z,0.57
2023-02-11T20:53:16.027Z,0.62
2023-02-11T20:55:43.773Z,0.63
2023-02-11T20:58:11.652Z,0.66
2023-02-11T21:00:39.860Z,0.67
2023-02-11T21:03:07.522Z,0.67
2023-02-11T21:05:36.067Z,0.67
2023-02-11T21:08:05.779Z,0.67
2023-02-11T21:10:33.309Z,0.66
2023-02-11T21:13:03.012Z,0.65
2023-02-11T21:15:30.641Z,0.60
2023-02-11T21:17:58.377Z,0.52
2023-02-11T21:20:25.996Z,0.49
2023-02-11T21:22:53.762Z,0.48
2023-02-11T21:25:22.505Z,0.50
2023-02-11T21:27:50.294Z,0.51
2023-02-11T21:30:18.276Z,0.52
2023-02-11T21:32:46.151Z,0.54
2023-02-11T21:35:14.735Z,0.55
2023-02-11T21:37:42.363Z,0.54
2023-02-11T21:40:09.977Z,0.52
2023-02-11T21:42:37.514Z,0.49
2023-02-11T21:45:05.136Z,0.50
2023-02-11T21:47:32.860Z,0.51
2023-02-11T21:50:00.360Z,0.51
2023-02-11T21:52:27.941Z,0.53
2023-02-11T21:54:55.542Z,0.54
2023-02-11T21:57:23.284Z,0.54
2023-02-11T21:59:52.949Z,0.54
2023-02-11T22:02:20.479Z,0.55
2023-02-11T22:04:48.250Z,0.57
2023-02-11T22:07:15.957Z,0.58
2023-02-11T22:09:43.719Z,0.59
2023-02-11T22:12:11.280Z,0.61
2023-02-11T22:14:38.930Z,0.64
2023-02-11T22:17:06.586Z,0.71
2023-02-11T22:19:34.342Z,0.75
2023-02-11T22:22:02.190Z,0.85
2023-02-11T22:24:29.797Z,0.92
2023-02-11T22:26:57.322Z,0.95
2023-02-11T22:29:24.858Z,1.01
2023-02-11T22:31:52.335Z,1.05
2023-02-11T22:34:20.189Z,1.09
2023-02-11T22:36:47.853Z,1.14
2023-02-11T22:39:15.346Z,1.20
2023-02-11T22:41:42.857Z,1.26
2023-02-11T22:44:10.417Z,1.33
2023-02-11T22:46:37.945Z,1.37
2023-02-11T22:49:05.537Z,1.40
2023-02-11T22:51:33.170Z,1.41
2023-02-11T22:54:00.684Z,1.39
2023-02-11T22:56:28.254Z,1.41
2023-02-11T22:58:55.801Z,1.43
2023-02-11T23:01:23.295Z,1.46
2023-02-11T23:03:50.928Z,1.49
2023-02-11T23:06:18.549Z,1.52
2023-02-11T23:08:46.044Z,1.52
2023-02-11T23:11:13.565Z,1.54
2023-02-11T23:13:41.115Z,1.54
2023-02-11T23:16:08.846Z,1.56
2023-02-11T23:18:36.837Z,1.58
2023-02-11T23:21:04.767Z,1.60
2023-02-11T23:23:32.241Z,1.60
2023-02-11T23:25:59.773Z,1.60
2023-02-11T23:28:27.360Z,1.61
2023-02-11T23:30:55.033Z,1.61
2023-02-11T23:33:22.609Z,1.59
2023-02-11T23:35:50.398Z,1.59
2023-02-11T23:38:18.043Z,1.58
2023-02-11T23:40:45.705Z,1.61
2023-02-11T23:43:13.295Z,1.61
2023-02-11T23:45:40.866Z,1.62
2023-02-11T23:48:08.435Z,1.64
2023-02-11T23:50:36.122Z,1.64
2023-02-11T23:53:03.636Z,1.66
2023-02-11T23:55:31.424Z,1.67
2023-02-11T23:57:58.992Z,1.68
